Terminal Aerodrome Forecast
Issued by NWS Pocatello, ID

Home | Current Version | Previous Version | Text Only | Print | Product List | Glossary On
Versions: 1 2 3 4 5 6 7 8 9 10 11 12 13 14 15 16 17 18
000
FTUS45 KPIH 272326
TAFBYI
TAF
KBYI 272326Z 2800/2824 27014G24KT P6SM VCSH SCT035
     FM280200 23009KT P6SM SCT050
     FM281100 26018G28KT 6SM -SHSN BKN025 OVC035
     FM281900 26022G32KT P6SM VCSH SCT028 BKN050=

USA.gov is the U.S. government's official web portal to all federal, state and local government web resources and services.